Time;durP1;ratioP1;P1;durP2;ratioP2;P2;SDS_P1;SDS_P2;PMS_P1;PMS_P2;Temp;Humidity;BMP_temperature;BMP_pressure;BME280_temperature;BME280_humidity;BME280_pressure;Samples;Min_cycle;Max_cycle;Signal;HPM_P1;HPM_P2
2022/12/04 00:01:34;;;;;;;;;33.00;29.50;;;;;11.97;89.47;101990.78;146606;615;46017;-73
2022/12/04 00:04:33;;;;;;;;;41.25;33.25;;;;;11.99;89.53;101999.56;146609;637;46020;-74
2022/12/04 00:07:28;;;;;;;;;27.50;25.50;;;;;12.00;89.26;101996.19;146618;599;46016;-71
2022/12/04 00:10:28;;;;;;;;;25.50;20.75;;;;;12.00;89.59;102002.28;146608;606;46914;-74
2022/12/04 00:13:27;;;;;;;;;60.00;47.25;;;;;12.02;89.42;102005.88;146617;606;46012;-73
2022/12/04 00:16:38;;;;;;;;;55.75;45.00;;;;;8.92;88.78;101456.72;146620;607;46021;-73
2022/12/04 00:19:31;;;;;;;;;62.25;48.75;;;;;12.02;89.36;102000.69;146617;642;46012;-73
2022/12/04 00:22:27;;;;;;;;;67.00;53.00;;;;;12.03;89.24;102006.78;146620;606;46010;-72
2022/12/04 00:25:38;;;;;;;;;;;;;;;;;;;;;
2022/12/04 00:28:32;;;;;;;;;71.00;54.00;;;;;12.01;89.35;102001.47;146622;573;46020;-71
2022/12/04 00:31:30;;;;;;;;;66.75;51.50;;;;;12.00;89.20;102002.28;146617;602;46016;-72
2022/12/04 00:34:34;;;;;;;;;72.00;57.25;;;;;11.99;89.46;102003.09;146610;640;46029;-72
2022/12/04 00:37:38;;;;;;;;;71.50;57.00;;;;;11.96;89.74;102007.16;146615;593;46017;-72
2022/12/04 00:40:54;;;;;;;;;71.75;56.25;;;;;11.91;89.65;101999.06;146622;570;46010;-72
2022/12/04 00:44:01;;;;;;;;;70.25;56.25;;;;;11.85;89.84;101993.47;146616;577;46017;-70
2022/12/04 00:47:02;;;;;;;;;64.75;51.00;;;;;11.88;89.46;101990.19;146620;719;46012;-70
2022/12/04 00:49:55;;;;;;;;;65.75;51.25;;;;;11.90;89.71;101994.69;146615;565;46012;-71
2022/12/04 00:52:57;;;;;;;;;67.25;52.00;;;;;11.91;89.72;101986.06;146622;597;46010;-70
2022/12/04 00:56:04;;;;;;;;;67.00;51.75;;;;;11.34;89.85;101887.87;146617;576;47012;-71
2022/12/04 00:59:01;;;;;;;;;64.25;50.75;;;;;10.75;89.40;101780.97;146620;572;47010;-69
2022/12/04 01:02:10;;;;;;;;;70.50;57.25;;;;;11.97;89.58;101990.78;146617;597;46016;-74
2022/12/04 01:05:22;;;;;;;;;65.50;48.25;;;;;11.96;89.34;101988.97;146610;598;46012;-73
2022/12/04 01:08:19;;;;;;;;;62.00;47.00;;;;;11.95;89.44;101984.56;146608;565;47012;-74
2022/12/04 01:11:13;;;;;;;;;52.75;44.00;;;;;11.95;89.48;102000.16;146613;596;46012;-74
2022/12/04 01:14:08;;;;;;;;;59.50;46.00;;;;;11.95;89.60;101990.66;146610;660;46013;-73
2022/12/04 01:17:11;;;;;;;;;44.25;37.25;;;;;11.96;89.32;101997.69;146612;578;46020;-75
2022/12/04 01:20:19;;;;;;;;;49.00;38.50;;;;;8.74;88.83;101430.47;146607;764;47012;-78
2022/12/04 01:23:15;;;;;;;;;50.00;39.50;;;;;11.94;89.44;101986.28;146614;635;46012;-78
2022/12/04 01:26:10;;;;;;;;;37.00;33.00;;;;;11.93;89.62;101988.75;146611;626;46036;-78
2022/12/04 01:29:11;;;;;;;;;38.75;32.00;;;;;11.91;89.39;101986.06;146613;619;46020;-77
2022/12/04 01:32:05;;;;;;;;;34.25;29.25;;;;;11.87;89.91;101986.69;146607;578;46012;-78
2022/12/04 01:35:15;;;;;;;;;33.25;28.25;;;;;11.84;89.80;101986.44;146608;609;47010;-70
2022/12/04 01:38:12;;;;;;;;;30.50;27.00;;;;;11.83;90.09;101989.81;146611;610;46916;-71
2022/12/04 01:41:16;;;;;;;;;;;;;;;;;;;;;
2022/12/04 01:44:32;;;;;;;;;22.50;18.75;;;;;11.86;90.14;101992.66;146611;564;46012;-78
2022/12/04 01:47:32;;;;;;;;;14.50;14.00;;;;;11.87;90.56;101988.34;146614;741;46010;-74
2022/12/04 01:50:26;;;;;;;;;12.75;10.00;;;;;11.88;90.16;101987.56;146610;580;46016;-73
2022/12/04 01:53:21;;;;;;;;;13.25;12.25;;;;;11.91;90.37;101993.88;146613;631;46020;-72
2022/12/04 01:56:15;;;;;;;;;9.75;9.50;;;;;11.92;90.68;101982.66;146610;656;46918;-74
2022/12/04 01:59:18;;;;;;;;;10.75;8.25;;;;;11.94;90.57;101987.97;146623;569;45031;-75
2022/12/04 02:02:52;;;;;;;;;10.50;10.00;;;;;9.14;90.04;101492.72;146614;702;46918;-74
2022/12/04 02:05:46;;;;;;;;;11.25;8.50;;;;;11.90;90.66;101972.97;146615;569;46022;-74
2022/12/04 02:08:49;;;;;;;;;9.25;8.00;;;;;11.96;90.60;101978.56;146617;651;47012;-74
2022/12/04 02:12:28;;;;;;;;;10.00;10.00;;;;;11.97;90.41;101978.69;146622;648;46020;-74
2022/12/04 02:15:47;;;;;;;;;7.25;7.25;;;;;12.00;90.53;101972.78;146619;569;46017;-74
2022/12/04 02:19:33;;;;;;;;;7.25;7.25;;;;;9.25;89.61;101487.50;146623;582;46020;-73
2022/12/04 02:23:07;;;;;;;;;6.25;6.00;;;;;12.05;90.55;101976.56;146617;576;46031;-74
2022/12/04 02:26:43;;;;;;;;;5.00;5.00;;;;;12.06;90.11;101980.09;146624;654;46020;-78
2022/12/04 02:30:02;;;;;;;;;7.33;6.33;;;;;12.05;90.03;101980.88;146618;630;46016;-76
2022/12/04 02:33:36;;;;;;;;;4.75;4.50;;;;;9.24;89.78;101496.03;146621;597;46010;-79
2022/12/04 02:36:58;;;;;;;;;25.50;21.75;;;;;9.42;89.85;101529.16;146620;567;46013;-76
2022/12/04 02:40:08;;;;;;;;;29.50;23.25;;;;;12.10;90.31;101998.56;146618;620;46020;-80
2022/12/04 02:43:24;;;;;;;;;46.00;36.00;;;;;12.08;89.98;101996.66;146617;593;46017;-79
2022/12/04 02:46:48;;;;;;;;;61.25;47.50;;;;;9.33;89.62;101519.06;146621;618;47012;-79
2022/12/04 02:50:22;;;;;;;;;;;;;;;;;;;;;
2022/12/04 02:53:34;;;;;;;;;41.00;35.00;;;;;12.04;90.08;102002.47;146621;571;46012;-77
2022/12/04 02:56:57;;;;;;;;;47.00;36.00;;;;;12.00;90.49;102002.28;146613;568;46016;-72
2022/12/04 03:00:24;;;;;;;;;46.25;37.25;;;;;9.02;89.67;101482.41;146624;566;46020;-72
2022/12/04 03:04:10;;;;;;;;;43.25;33.00;;;;;9.13;89.63;101501.28;146618;576;47012;-69
2022/12/04 03:07:10;;;;;;;;;40.75;33.00;;;;;11.93;90.28;101993.97;146633;570;45020;-72
2022/12/04 03:10:31;;;;;;;;;39.75;32.50;;;;;9.19;89.99;101515.53;146628;569;46012;-71
2022/12/04 03:13:56;;;;;;;;;40.00;34.25;;;;;11.91;90.49;101998.19;146630;634;46012;-70
2022/12/04 03:16:53;;;;;;;;;41.00;34.25;;;;;11.91;90.56;101996.47;146634;591;45913;-73
2022/12/04 03:20:12;;;;;;;;;38.00;33.75;;;;;11.95;90.72;102005.38;146637;661;45020;-73
2022/12/04 03:23:16;;;;;;;;;40.75;32.50;;;;;11.95;90.97;102001.06;146633;653;46913;-74
2022/12/04 03:26:50;;;;;;;;;39.75;33.00;;;;;9.25;90.40;101515.97;146636;689;45020;-74
2022/12/04 03:30:39;;;;;;;;;40.75;32.75;;;;;12.01;90.57;102001.47;146634;566;45916;-75
2022/12/04 03:33:56;;;;;;;;;35.50;28.75;;;;;11.99;90.24;102000.50;146637;559;45020;-74
2022/12/04 03:37:07;;;;;;;;;36.00;31.75;;;;;11.96;90.47;102002.87;146633;588;45915;-74
2022/12/04 03:40:06;;;;;;;;;40.75;32.50;;;;;11.95;90.50;102003.66;146635;607;45020;-71
2022/12/04 03:43:50;;;;;;;;;35.75;30.75;;;;;9.15;89.97;101512.63;146634;693;46915;-72
2022/12/04 03:47:23;;;;;;;;;36.50;30.00;;;;;11.91;90.71;102001.66;146629;582;45020;-72
2022/12/04 03:50:54;;;;;;;;;;;;;;;;;;;;;
2022/12/04 03:54:07;;;;;;;;;32.75;27.75;;;;;11.87;90.95;102003.94;146637;669;45010;-72
2022/12/04 03:57:38;;;;;;;;;28.25;23.75;;;;;10.31;90.50;101735.66;146633;603;45915;-74
2022/12/04 04:00:41;;;;;;;;;24.75;24.50;;;;;11.86;90.69;102008.25;146639;593;45010;-74
2022/12/04 04:03:52;;;;;;;;;28.75;27.50;;;;;11.88;90.59;102001.47;146636;694;45016;-73
2022/12/04 04:07:12;;;;;;;;;29.75;26.50;;;;;11.92;91.17;102003.47;146617;573;46010;-74
2022/12/04 04:10:17;;;;;;;;;28.00;26.25;;;;;11.94;91.26;101996.69;146612;702;47012;-76
2022/12/04 04:26:33;;;;;;;;;23.75;23.25;;;;;11.89;91.79;101997.16;146613;588;47011;-71
2022/12/04 04:29:28;;;;;;;;;24.50;21.00;;;;;11.89;91.55;102008.44;146613;576;46917;-71
2022/12/04 04:32:48;;;;;;;;;18.00;16.50;;;;;11.94;91.50;102008.78;146616;695;45020;-70
2022/12/04 04:36:34;;;;;;;;;20.25;17.50;;;;;9.22;91.01;101533.88;146611;616;46016;-71
2022/12/04 04:39:43;;;;;;;;;18.00;17.00;;;;;11.96;91.22;102023.69;146610;677;47010;-72
2022/12/04 04:43:13;;;;;;;;;18.75;15.25;;;;;9.21;90.83;101533.75;146612;597;46917;-72
2022/12/04 04:46:37;;;;;;;;;17.50;17.50;;;;;9.22;90.80;101540.72;146610;578;46028;-72
2022/12/04 04:49:44;;;;;;;;;18.50;17.00;;;;;12.00;91.39;102033.47;146612;574;46017;-71
2022/12/04 04:52:42;;;;;;;;;21.25;18.25;;;;;12.02;91.49;102034.50;146608;665;46020;-71
2022/12/04 04:55:44;;;;;;;;;24.25;18.25;;;;;12.06;91.83;102050.28;146612;581;47015;-72
2022/12/04 04:58:40;;;;;;;;;18.00;16.50;;;;;12.07;91.65;102044.28;146613;602;46021;-72
2022/12/04 05:01:32;;;;;;;;;13.00;12.00;;;;;12.07;91.69;102052.06;146611;607;46016;-72
2022/12/04 05:04:34;;;;;;;;;19.00;15.50;;;;;9.33;90.92;101580.28;146614;605;46021;-72
2022/12/04 05:07:29;;;;;;;;;18.75;15.50;;;;;12.06;91.32;102066.78;146613;582;46016;-71
2022/12/04 05:10:22;;;;;;;;;15.50;14.00;;;;;12.06;91.31;102063.28;146617;673;46020;-71
2022/12/04 05:13:18;;;;;;;;;19.50;17.00;;;;;12.06;91.56;102069.38;146611;569;46016;-70
2022/12/04 05:16:15;;;;;;;;;21.75;17.75;;;;;12.07;91.14;102073.78;146616;599;46020;-71
2022/12/04 05:22:42;;;;;;;;;49.75;37.50;;;;;12.12;91.30;102076.66;146608;567;47010;-71
2022/12/04 05:25:53;;;;;;;;;34.25;30.50;;;;;12.11;91.39;102073.16;146608;708;47012;-71
2022/12/04 05:28:48;;;;;;;;;32.25;27.25;;;;;12.09;91.46;102072.19;146610;586;47010;-71
2022/12/04 05:31:46;;;;;;;;;24.75;23.50;;;;;12.06;91.47;102074.59;146610;613;47015;-71
2022/12/04 05:34:44;;;;;;;;;14.50;12.25;;;;;12.05;91.07;102067.56;146613;660;46020;-71
2022/12/04 05:37:48;;;;;;;;;14.50;11.00;;;;;12.06;91.22;102071.09;146613;606;47014;-70
2022/12/04 05:40:51;;;;;;;;;12.50;9.50;;;;;12.08;91.40;102067.75;146616;575;47010;-70
2022/12/04 05:44:07;;;;;;;;;;;;;;;;;;;;;
2022/12/04 05:47:02;;;;;;;;;14.00;12.00;;;;;12.11;91.84;102069.66;146620;572;46020;-72
2022/12/04 05:49:58;;;;;;;;;16.00;13.50;;;;;12.13;91.55;102076.78;146610;633;46017;-72
2022/12/04 05:53:01;;;;;;;;;19.75;16.75;;;;;12.12;91.41;102072.38;146607;642;46012;-71
2022/12/04 05:56:06;;;;;;;;;19.50;16.50;;;;;12.14;91.62;102065.56;146612;616;46016;-72
2022/12/04 05:59:03;;;;;;;;;19.25;13.50;;;;;12.14;91.62;102062.06;146613;609;46020;-71
2022/12/04 06:01:56;;;;;;;;;11.00;11.00;;;;;12.14;91.67;102075.06;146613;637;46029;-71
2022/12/04 06:05:01;;;;;;;;;21.50;17.25;;;;;12.13;91.95;102078.47;146617;672;46020;-72
2022/12/04 06:08:04;;;;;;;;;18.25;14.25;;;;;12.13;92.16;102081.97;146616;628;46016;-70
2022/12/04 06:11:06;;;;;;;;;20.50;14.75;;;;;12.11;91.64;102078.38;146622;579;46021;-71
2022/12/04 06:14:10;;;;;;;;;17.75;16.00;;;;;12.11;92.15;102075.78;146618;576;46016;-71
2022/12/04 06:17:30;;;;;;;;;14.75;14.50;;;;;12.13;91.95;102087.19;146621;603;46021;-70
2022/12/04 06:20:27;;;;;;;;;12.75;12.50;;;;;12.19;91.88;102081.50;146619;573;46016;-70
2022/12/04 06:23:29;;;;;;;;;17.50;13.25;;;;;12.23;92.08;102091.28;146617;580;46010;-71
2022/12/04 06:26:23;;;;;;;;;12.00;9.75;;;;;12.27;92.22;102081.97;146617;564;46017;-72
2022/12/04 06:29:28;;;;;;;;;14.00;11.50;;;;;12.32;92.23;102088.41;146623;569;46020;-72
2022/12/04 06:32:25;;;;;;;;;11.75;11.50;;;;;12.37;92.18;102092.22;146618;572;46015;-72
2022/12/04 06:35:24;;;;;;;;;20.50;16.50;;;;;12.39;92.16;102085.41;146619;575;46020;-70
2022/12/04 06:38:16;;;;;;;;;16.25;15.25;;;;;12.42;92.00;102088.19;146618;599;46016;-71
2022/12/04 06:41:16;;;;;;;;;15.50;15.50;;;;;12.39;92.09;102075.88;146621;570;46021;-71
2022/12/04 06:44:20;;;;;;;;;18.00;13.75;;;;;12.46;92.07;102082.38;146617;565;46012;-70
2022/12/04 06:47:21;;;;;;;;;24.75;23.75;;;;;12.49;92.16;102087.78;146623;595;46010;-71
2022/12/04 06:50:25;;;;;;;;;28.50;23.25;;;;;12.51;92.06;102085.31;146617;590;46915;-71
2022/12/04 06:53:39;;;;;;;;;;;;;;;;;;;;;
2022/12/04 06:56:34;;;;;;;;;35.25;29.75;;;;;12.60;92.11;102096.31;146614;634;46019;-70
2022/12/04 06:59:39;;;;;;;;;46.75;37.75;;;;;12.65;92.58;102101.03;146621;563;46020;-71
2022/12/04 07:02:35;;;;;;;;;45.75;36.50;;;;;12.73;92.59;102103.19;146615;570;47013;-71
2022/12/04 07:05:33;;;;;;;;;48.50;36.25;;;;;12.76;92.43;102100.78;146615;575;46020;-70
2022/12/04 07:08:38;;;;;;;;;;;;;;;;;;;;;
2022/12/04 07:11:34;;;;;;;;;31.25;28.25;;;;;12.84;92.41;102087.47;146613;569;46021;-71
2022/12/04 07:14:37;;;;;;;;;29.25;26.00;;;;;12.89;92.22;102075.62;146611;584;47014;-70
2022/12/04 07:17:30;;;;;;;;;30.50;26.50;;;;;12.92;91.81;102078.44;146613;570;46021;-72
2022/12/04 07:20:32;;;;;;;;;31.25;28.00;;;;;12.95;91.46;102076.03;146612;602;46016;-72
2022/12/04 07:23:24;;;;;;;;;26.25;23.25;;;;;12.98;91.08;102072.72;146609;629;46021;-71
2022/12/04 07:26:29;;;;;;;;;26.25;21.50;;;;;13.04;90.92;102069.59;146610;617;46016;-71
2022/12/04 07:29:24;;;;;;;;;20.25;18.25;;;;;13.09;90.85;102069.09;146612;593;47010;-71
2022/12/04 07:32:19;;;;;;;;;18.75;17.00;;;;;13.16;90.81;102055.62;146611;670;46916;-71
2022/12/04 07:35:33;;;;;;;;;18.00;16.50;;;;;13.28;91.16;102052.94;146613;584;46020;-71
2022/12/04 07:38:30;;;;;;;;;24.50;20.25;;;;;13.38;91.04;102052.69;146606;631;47015;-71
2022/12/04 07:41:24;;;;;;;;;28.75;23.75;;;;;13.50;90.96;102049.03;146613;574;47010;-71
2022/12/04 07:44:18;;;;;;;;;27.25;23.25;;;;;13.57;90.55;102052.09;146608;601;46020;-71
2022/12/04 07:47:11;;;;;;;;;24.50;22.25;;;;;13.65;89.60;102042.12;146612;570;47011;-71
2022/12/04 07:50:07;;;;;;;;;27.75;23.25;;;;;13.69;88.74;102036.28;146610;611;46025;-72
2022/12/04 07:53:11;;;;;;;;;26.00;23.75;;;;;13.74;88.44;102042.69;146608;633;47011;-71
2022/12/04 07:56:11;;;;;;;;;31.25;28.00;;;;;13.81;88.17;102043.94;146610;574;46016;-71
2022/12/04 07:59:03;;;;;;;;;43.75;36.00;;;;;13.84;87.41;102041.50;146613;595;47010;-72
2022/12/04 08:02:10;;;;;;;;;40.75;33.25;;;;;13.84;86.73;102036.31;146611;577;46017;-71
2022/12/04 08:05:14;;;;;;;;;49.00;39.50;;;;;13.86;86.72;102034.66;146611;565;47020;-71
2022/12/04 08:08:15;;;;;;;;;48.00;38.50;;;;;13.89;86.62;102045.28;146609;607;46016;-71
2022/12/04 08:11:22;;;;;;;;;49.00;40.50;;;;;13.90;86.31;102048.81;146611;579;47010;-71
2022/12/04 08:14:15;;;;;;;;;54.25;42.25;;;;;13.88;86.19;102058.22;146610;625;46016;-71
2022/12/04 08:17:11;;;;;;;;;53.75;43.75;;;;;13.86;86.46;102058.13;146615;585;46030;-71
2022/12/04 08:20:10;;;;;;;;;48.00;39.50;;;;;13.79;86.73;102050.75;146611;630;46012;-71
2022/12/04 08:23:08;;;;;;;;;41.25;35.25;;;;;13.83;87.10;102056.28;146609;622;46011;-71
2022/12/04 08:26:14;;;;;;;;;76.00;64.75;;;;;13.89;87.02;102055.69;146608;612;47012;-71
2022/12/04 08:29:19;;;;;;;;;71.25;51.75;;;;;13.94;87.58;102056.87;146614;572;46020;-71
2022/12/04 08:32:24;;;;;;;;;41.75;33.00;;;;;14.03;87.27;102052.22;146611;731;46016;-72
2022/12/04 08:35:27;;;;;;;;;44.50;36.25;;;;;14.12;87.34;102045.75;146617;684;46010;-71
2022/12/04 08:38:22;;;;;;;;;48.50;38.25;;;;;14.21;86.76;102048.88;146610;564;46017;-71
2022/12/04 08:41:22;;;;;;;;;47.75;37.50;;;;;14.28;86.10;102049.31;146612;573;46020;-71
2022/12/04 08:44:28;;;;;;;;;;;;;;;;;;;;;
2022/12/04 08:47:25;;;;;;;;;25.50;20.50;;;;;14.28;83.19;102036.25;146614;635;46010;-70
2022/12/04 08:50:20;;;;;;;;;21.50;21.25;;;;;14.26;84.02;102045.69;146610;611;47012;-71
2022/12/04 08:53:31;;;;;;;;;38.25;31.75;;;;;14.24;84.48;102034.31;146608;655;46021;-71
2022/12/04 08:56:23;;;;;;;;;33.50;29.00;;;;;14.25;84.37;102024.75;146613;640;46012;-72
2022/12/04 08:59:22;;;;;;;;;40.50;34.00;;;;;13.89;84.55;101960.94;146614;607;46010;-71
2022/12/04 09:02:24;;;;;;;;;26.50;26.00;;;;;11.59;83.51;101550.09;146611;633;46016;-71
2022/12/04 09:05:26;;;;;;;;;24.00;20.00;;;;;14.27;83.89;102021.44;146614;693;46020;-71
2022/12/04 09:08:22;;;;;;;;;21.50;20.00;;;;;14.28;84.09;102020.59;146611;658;46013;-71
2022/12/04 09:11:29;;;;;;;;;22.00;19.00;;;;;14.30;84.36;102019.00;146616;565;47010;-71
2022/12/04 09:14:25;;;;;;;;;23.75;22.25;;;;;14.31;84.29;102012.94;146607;579;47012;-71
2022/12/04 09:17:24;;;;;;;;;24.75;22.00;;;;;14.36;84.29;102010.63;146615;644;46018;-71
2022/12/04 09:20:16;;;;;;;;;39.00;30.75;;;;;14.39;83.80;102004.66;146611;610;46014;-71
2022/12/04 09:23:10;;;;;;;;;24.75;20.75;;;;;14.39;83.51;102008.19;146609;582;46010;-71
2022/12/04 09:26:05;;;;;;;;;29.00;26.25;;;;;14.42;83.81;102010.03;146610;599;47014;-71
2022/12/04 09:29:10;;;;;;;;;26.75;24.50;;;;;14.44;83.67;102001.50;146611;600;46020;-71
2022/12/04 09:32:18;;;;;;;;;20.25;19.00;;;;;14.46;83.24;101999.87;146609;583;47014;-71
2022/12/04 09:35:32;;;;;;;;;16.00;15.00;;;;;11.77;82.13;101526.91;146615;593;46030;-71
2022/12/04 09:38:30;;;;;;;;;19.00;17.50;;;;;14.45;82.06;101999.78;146613;654;46918;-71
2022/12/04 09:42:04;;;;;;;;;30.25;27.00;;;;;14.43;82.69;101999.72;146612;571;47010;-71
2022/12/04 09:45:13;;;;;;;;;34.00;29.00;;;;;14.42;82.29;101991.78;146609;599;47012;-71
2022/12/04 09:48:29;;;;;;;;;;;;;;;;;;;;;
2022/12/04 09:51:28;;;;;;;;;16.75;15.50;;;;;14.43;82.93;101980.53;146613;630;46016;-71
2022/12/04 09:54:39;;;;;;;;;;;;;;;;;;;;;
2022/12/04 09:57:47;;;;;;;;;25.00;22.00;;;;;14.39;81.78;101994.22;146610;564;47012;-70
2022/12/04 10:00:49;;;;;;;;;19.25;16.50;;;;;14.32;79.42;101993.88;146617;576;46010;-71
2022/12/04 10:03:48;;;;;;;;;17.50;16.50;;;;;13.09;79.95;101782.66;146611;569;46012;-70
2022/12/04 10:06:53;;;;;;;;;18.50;14.50;;;;;14.26;78.29;101993.53;146614;608;46010;-70
2022/12/04 10:10:28;;;;;;;;;19.50;17.50;;;;;14.25;79.26;101991.72;146612;602;46012;-70
2022/12/04 10:14:15;;;;;;;;;22.00;18.25;;;;;11.88;80.09;101562.25;146615;591;47012;-70
2022/12/04 10:17:59;;;;;;;;;26.25;23.00;;;;;12.99;80.23;101745.56;146611;599;47012;-71
2022/12/04 10:21:30;;;;;;;;;47.25;40.25;;;;;11.22;80.47;101423.25;146611;579;47010;-70
2022/12/04 10:25:05;;;;;;;;;50.00;40.25;;;;;11.72;81.29;101512.75;146609;605;46037;-71
2022/12/04 10:28:21;;;;;;;;;48.50;39.50;;;;;14.38;81.22;101972.44;146608;571;46020;-71
2022/12/04 10:31:28;;;;;;;;;46.25;38.25;;;;;14.38;81.60;101982.87;146608;609;46017;-70
2022/12/04 10:34:52;;;;;;;;;;;;;;;;;;;;;
2022/12/04 10:37:49;;;;;;;;;39.00;31.75;;;;;14.38;81.28;101975.06;146609;598;46017;-71
2022/12/04 10:41:04;;;;;;;;;36.75;33.00;;;;;14.33;81.32;101969.59;146614;677;47010;-70
2022/12/04 10:44:09;;;;;;;;;;;;;;;;;;;;;
2022/12/04 10:47:29;;;;;;;;;34.25;30.00;;;;;11.77;81.22;101513.91;146614;572;46021;-71
2022/12/04 10:50:28;;;;;;;;;57.00;42.25;;;;;14.43;81.92;101970.09;146612;565;46021;-71
2022/12/04 10:53:36;;;;;;;;;46.75;38.50;;;;;14.43;81.91;101972.72;146616;576;46010;-71
2022/12/04 10:56:42;;;;;;;;;;;;;;;;;;;;;
2022/12/04 10:59:49;;;;;;;;;28.75;26.75;;;;;14.37;80.50;101968.03;146608;577;46021;-70
2022/12/04 11:02:54;;;;;;;;;32.25;28.75;;;;;14.36;79.98;101963.66;146611;571;46016;-70
2022/12/04 11:06:22;;;;;;;;;36.00;31.75;;;;;14.36;80.36;101968.87;146612;579;47012;-70
2022/12/04 11:09:38;;;;;;;;;69.50;51.50;;;;;14.36;80.76;101958.44;146611;643;46918;-70
2022/12/04 11:12:55;;;;;;;;;48.00;39.00;;;;;14.37;80.68;101956.72;146616;588;46020;-70
2022/12/04 11:15:53;;;;;;;;;43.50;31.50;;;;;14.33;80.57;101959.16;146609;590;47013;-70
2022/12/04 11:19:04;;;;;;;;;32.50;29.25;;;;;14.29;80.13;101962.37;146610;583;47010;-70
2022/12/04 11:22:39;;;;;;;;;44.50;36.25;;;;;14.25;80.25;101959.53;146612;640;46017;-70
2022/12/04 11:25:48;;;;;;;;;37.25;30.75;;;;;14.19;81.21;101954.88;146609;589;47010;-70
2022/12/04 11:29:04;;;;;;;;;27.25;23.75;;;;;11.56;80.33;101527.44;146608;621;46016;-71
2022/12/04 11:32:18;;;;;;;;;48.25;37.75;;;;;14.15;80.51;101971.16;146607;583;46010;-70
2022/12/04 11:35:32;;;;;;;;;31.00;27.50;;;;;11.51;80.67;101509.78;146606;609;46914;-71
2022/12/04 11:38:35;;;;;;;;;12.00;10.00;;;;;14.07;79.08;101964.59;146614;566;47010;-71
2022/12/04 11:41:36;;;;;;;;;18.50;16.25;;;;;14.03;78.90;101973.97;146613;575;46016;-71
2022/12/04 11:44:34;;;;;;;;;13.00;12.00;;;;;14.04;77.91;101969.66;146615;654;46020;-71
2022/12/04 11:48:02;;;;;;;;;15.75;14.25;;;;;14.01;77.62;101965.16;146612;649;46016;-70
2022/12/04 11:51:55;;;;;;;;;25.00;23.50;;;;;13.99;78.18;101960.69;146612;583;46010;-71
2022/12/04 11:55:27;;;;;;;;;15.00;14.00;;;;;13.96;77.00;101944.88;146613;585;46014;-70
2022/12/04 11:59:12;;;;;;;;;14.25;13.25;;;;;13.93;75.65;101942.09;146618;597;46020;-71
2022/12/04 12:02:40;;;;;;;;;23.50;19.75;;;;;13.92;76.39;101933.34;146612;602;45915;-71
2022/12/04 12:06:32;;;;;;;;;20.75;19.50;;;;;11.26;74.24;101474.53;146617;616;46010;-72
2022/12/04 12:10:20;;;;;;;;;14.00;13.00;;;;;13.86;75.66;101935.59;146623;583;45018;-71
2022/12/04 12:14:16;;;;;;;;;15.75;13.50;;;;;11.03;75.94;101435.94;146623;564;46013;-70
2022/12/04 12:18:07;;;;;;;;;19.50;16.75;;;;;11.27;74.55;101491.91;146617;595;46016;-70
2022/12/04 12:21:32;;;;;;;;;25.75;21.25;;;;;11.44;75.10;101518.91;146618;659;47010;-70
2022/12/04 12:24:57;;;;;;;;;30.75;26.00;;;;;13.79;76.34;101925.63;146618;601;46016;-70
2022/12/04 12:28:24;;;;;;;;;34.00;28.00;;;;;13.85;77.12;101925.97;146624;600;45020;-70
2022/12/04 12:32:01;;;;;;;;;42.00;35.00;;;;;13.98;77.02;101906.72;146617;620;46023;-71
2022/12/04 12:35:37;;;;;;;;;25.50;22.25;;;;;11.40;76.35;101432.91;146619;572;47010;-71
2022/12/04 12:39:25;;;;;;;;;33.50;31.50;;;;;11.44;76.84;101428.00;146619;579;46017;-71
2022/12/04 12:43:14;;;;;;;;;31.50;29.00;;;;;14.26;77.84;101930.00;146614;614;47010;-71
2022/12/04 12:47:00;;;;;;;;;60.50;46.75;;;;;14.32;77.83;101912.97;146616;585;46014;-71
2022/12/04 12:50:21;;;;;;;;;59.50;45.50;;;;;14.41;78.02;101919.53;146623;591;46010;-71
2022/12/04 12:53:33;;;;;;;;;49.00;39.00;;;;;14.46;78.11;101918.97;146619;578;47014;-71
2022/12/04 12:57:02;;;;;;;;;49.75;39.25;;;;;11.10;78.60;101314.38;146625;581;47010;-71
2022/12/04 13:00:54;;;;;;;;;49.75;39.75;;;;;12.02;78.84;101467.81;146621;592;48012;-71
2022/12/04 13:04:04;;;;;;;;;47.75;37.00;;;;;14.64;78.35;101911.28;146620;777;46022;-71
2022/12/04 13:07:35;;;;;;;;;35.25;31.75;;;;;14.66;78.22;101906.12;146609;570;47012;-71
2022/12/04 13:11:04;;;;;;;;;27.50;22.50;;;;;14.65;77.83;101902.62;146615;624;46020;-71
2022/12/04 13:14:19;;;;;;;;;28.00;26.75;;;;;14.63;77.75;101906.84;146611;608;46017;-71
2022/12/04 13:17:24;;;;;;;;;36.00;30.25;;;;;14.63;78.64;101901.63;146608;633;46010;-70
2022/12/04 13:20:28;;;;;;;;;31.00;29.25;;;;;14.64;78.31;101906.06;146610;566;47012;-70
2022/12/04 13:24:01;;;;;;;;;62.00;50.50;;;;;14.65;78.41;101906.94;146603;610;47010;-71
2022/12/04 13:27:34;;;;;;;;;50.50;42.00;;;;;14.64;78.20;101899.91;146613;576;46016;-71
2022/12/04 13:31:06;;;;;;;;;31.00;29.00;;;;;14.65;77.66;101889.56;146612;571;47010;-71
2022/12/04 13:34:37;;;;;;;;;53.75;43.50;;;;;12.02;78.08;101413.22;146611;647;46016;-71
2022/12/04 13:37:56;;;;;;;;;42.50;32.75;;;;;14.71;78.35;101879.47;146614;622;46010;-71
2022/12/04 13:41:03;;;;;;;;;65.50;49.50;;;;;14.72;77.89;101872.50;146614;623;46035;-71
2022/12/04 13:44:03;;;;;;;;;66.50;51.00;;;;;14.73;77.87;101866.47;146612;621;46021;-71
2022/12/04 13:47:32;;;;;;;;;66.50;52.00;;;;;14.75;78.38;101873.56;146611;579;47012;-71
2022/12/04 13:51:14;;;;;;;;;41.75;35.00;;;;;12.11;77.28;101404.13;146608;617;46012;-71
2022/12/04 13:54:41;;;;;;;;;47.50;37.25;;;;;12.08;77.79;101390.94;146611;573;46012;-71
2022/12/04 13:57:48;;;;;;;;;40.25;34.25;;;;;14.71;78.05;101857.69;146615;564;46020;-71
2022/12/04 14:01:12;;;;;;;;;43.75;34.25;;;;;14.70;77.96;101856.78;146608;597;46016;-70
2022/12/04 14:04:11;;;;;;;;;86.33;76.67;;;;;14.67;78.14;101869.69;146616;599;46010;-71
2022/12/04 14:07:46;;;;;;;;;108.00;95.67;;;;;11.93;78.41;101406.56;146621;641;46014;-71
2022/12/04 14:11:12;;;;;;;;;76.00;65.25;;;;;14.52;78.75;101861.94;146627;627;46010;-70
2022/12/04 14:14:09;;;;;;;;;77.33;70.33;;;;;14.46;78.09;101866.78;146616;564;47019;-71
2022/12/04 14:17:31;;;;;;;;;81.33;69.33;;;;;11.71;77.91;101394.03;146627;590;46020;-71
2022/12/04 14:21:04;;;;;;;;;78.33;66.33;;;;;12.02;78.47;101456.47;146618;600;46013;-71
2022/12/04 14:24:07;;;;;;;;;76.75;64.00;;;;;14.32;78.76;101876.47;146614;584;47012;-71
2022/12/04 14:27:05;;;;;;;;;70.25;55.00;;;;;14.26;78.60;101876.12;146618;559;46036;-71
2022/12/04 14:30:01;;;;;;;;;66.00;51.00;;;;;14.21;78.59;101880.22;146621;593;47010;-71
2022/12/04 14:33:21;;;;;;;;;;;;;;;;;;;;;
2022/12/04 14:36:23;;;;;;;;;61.50;48.75;;;;;14.09;79.14;101883.03;146623;630;46020;-71
2022/12/04 14:39:43;;;;;;;;;61.00;49.00;;;;;14.01;79.43;101886.03;146619;632;46016;-71
2022/12/04 14:43:16;;;;;;;;;74.00;59.75;;;;;14.01;79.50;101891.22;146622;625;46011;-70
2022/12/04 14:46:43;;;;;;;;;49.00;40.00;;;;;13.96;79.45;101882.28;146620;566;46016;-70
2022/12/04 14:50:16;;;;;;;;;65.25;50.75;;;;;11.15;79.31;101418.47;146623;584;46020;-71
2022/12/04 14:53:39;;;;;;;;;58.75;47.25;;;;;13.89;79.88;101887.94;146617;581;47012;-71
2022/12/04 14:57:19;;;;;;;;;56.00;44.50;;;;;13.85;79.93;101895.59;146616;621;46020;-70
2022/12/04 15:00:30;;;;;;;;;55.25;46.00;;;;;13.84;79.84;101904.22;146617;569;46016;-71
2022/12/04 15:03:58;;;;;;;;;54.75;44.00;;;;;13.81;80.17;101904.06;146622;625;47013;-70
2022/12/04 15:07:01;;;;;;;;;53.75;42.75;;;;;13.79;80.25;101912.59;146629;569;45915;-70
2022/12/04 15:13:15;;;;;;;;;57.75;45.25;;;;;13.76;80.45;101921.13;146634;608;45017;-71